Time;durP1;ratioP1;P1;durP2;ratioP2;P2;SDS_P1;SDS_P2;PMS_P1;PMS_P2;Temp;Humidity;BMP_temperature;BMP_pressure;BME280_temperature;BME280_humidity;BME280_pressure;Samples;Min_cycle;Max_cycle;Signal;HPM_P1;HPM_P2
2022/03/26 00:00:26;;;;;;;79.93;66.90;;;4.10;86.80;;;;;;5037921;28;20451;-84
2022/03/26 00:02:53;;;;;;;70.63;62.90;;;4.20;88.30;;;;;;5038072;28;20456;-83
2022/03/26 00:05:20;;;;;;;81.47;67.20;;;4.10;90.00;;;;;;5038266;28;20464;-84
2022/03/26 00:07:59;;;;;;;85.23;70.30;;;4.10;90.00;;;;;;5038369;28;20830;-84
2022/03/26 00:10:27;;;;;;;94.23;84.60;;;4.20;90.00;;;;;;5037634;28;20479;-84
2022/03/26 00:12:56;;;;;;;84.03;72.90;;;4.30;90.50;;;;;;5038295;28;20452;-84
2022/03/26 00:15:23;;;;;;;88.83;70.20;;;4.30;90.10;;;;;;5038018;28;20463;-84
2022/03/26 00:17:50;;;;;;;73.07;63.90;;;4.30;89.70;;;;;;5038132;28;20574;-84
2022/03/26 00:20:17;;;;;;;75.00;50.87;;;4.40;88.40;;;;;;5037718;28;20459;-84
2022/03/26 00:22:44;;;;;;;67.23;51.07;;;4.50;87.60;;;;;;5037513;28;20952;-84
2022/03/26 00:25:13;;;;;;;61.40;44.33;;;4.40;85.70;;;;;;5037823;28;20452;-83
2022/03/26 00:27:41;;;;;;;71.80;44.50;;;4.50;85.10;;;;;;5037925;28;20456;-84
2022/03/26 00:30:10;;;;;;;59.03;42.27;;;4.50;83.70;;;;;;5041115;28;20484;-83
2022/03/26 00:32:37;;;;;;;66.50;44.93;;;4.50;84.20;;;;;;5041909;28;20456;-84
2022/03/26 00:35:04;;;;;;;61.83;42.80;;;4.40;83.60;;;;;;5041713;28;20463;-83
2022/03/26 00:37:31;;;;;;;65.80;56.17;;;4.30;83.00;;;;;;5041438;28;20845;-84
2022/03/26 00:39:57;;;;;;;65.97;50.90;;;4.30;87.00;;;;;;5041533;28;20468;-84
2022/03/26 00:42:25;;;;;;;80.73;58.70;;;4.10;86.60;;;;;;5041453;28;20452;-84
2022/03/26 00:44:53;;;;;;;98.50;88.87;;;4.00;88.10;;;;;;5041613;28;20838;-84
2022/03/26 00:47:19;;;;;;;84.67;75.73;;;4.10;90.70;;;;;;5041313;28;20460;-83
2022/03/26 00:49:46;;;;;;;78.50;67.93;;;4.20;89.60;;;;;;5041361;28;20480;-84
2022/03/26 00:52:13;;;;;;;83.77;69.23;;;4.10;89.40;;;;;;5041424;28;20451;-83
2022/03/26 00:54:40;;;;;;;75.07;56.20;;;4.00;90.50;;;;;;5041276;28;20448;-84
2022/03/26 00:57:06;;;;;;;67.63;48.13;;;4.10;90.70;;;;;;5041610;28;20452;-84
2022/03/26 00:59:33;;;;;;;88.83;55.80;;;4.20;88.30;;;;;;5040273;28;20495;-84
2022/03/26 01:02:01;;;;;;;59.20;47.93;;;4.00;88.60;;;;;;5041067;28;20448;-83
2022/03/26 01:04:28;;;;;;;69.13;44.30;;;3.90;89.00;;;;;;5041591;28;20448;-84
2022/03/26 01:06:55;;;;;;;68.00;50.83;;;3.80;88.70;;;;;;5041342;28;20456;-84
2022/03/26 01:09:21;;;;;;;73.93;55.77;;;3.80;91.10;;;;;;5041021;28;20483;-84
2022/03/26 01:11:48;;;;;;;59.93;50.07;;;3.70;90.70;;;;;;5041279;28;20979;-84
2022/03/26 01:14:15;;;;;;;70.83;57.00;;;3.80;91.00;;;;;;5040397;28;20456;-84
2022/03/26 01:16:42;;;;;;;79.70;71.73;;;3.70;91.10;;;;;;5040935;28;20456;-84
2022/03/26 01:19:10;;;;;;;97.73;88.50;;;3.50;91.50;;;;;;5040968;28;20480;-84
2022/03/26 01:21:37;;;;;;;110.90;102.73;;;3.40;92.30;;;;;;5040430;28;20456;-84
2022/03/26 01:24:04;;;;;;;86.40;77.70;;;3.50;92.50;;;;;;5040590;28;20467;-84
2022/03/26 01:26:30;;;;;;;89.13;79.80;;;3.20;91.80;;;;;;5040379;28;20494;-84
2022/03/26 01:28:57;;;;;;;96.77;87.97;;;3.30;92.10;;;;;;5040061;28;20475;-84
2022/03/26 01:31:24;;;;;;;88.13;79.63;;;3.10;92.10;;;;;;5040578;28;20460;-83
2022/03/26 01:33:52;;;;;;;120.40;111.60;;;3.00;92.40;;;;;;5040719;28;20467;-83
2022/03/26 01:36:22;;;;;;;165.50;154.87;;;2.90;93.60;;;;;;5040600;28;20467;-83
2022/03/26 01:38:49;;;;;;;184.23;173.23;;;2.80;95.30;;;;;;5040429;28;20481;-83
2022/03/26 01:41:15;;;;;;;213.63;201.60;;;2.80;96.10;;;;;;5040001;28;20452;-83
2022/03/26 01:43:42;;;;;;;254.57;238.03;;;2.80;96.60;;;;;;5040654;28;20510;-83
2022/03/26 01:46:11;;;;;;;221.10;207.83;;;2.70;98.50;;;;;;5039703;28;20457;-83
2022/03/26 01:48:38;;;;;;;233.43;218.87;;;2.70;99.90;;;;;;5040137;28;20476;-83
2022/03/26 01:51:14;;;;;;;209.40;195.50;;;2.70;99.90;;;;;;5039956;28;20480;-83
2022/03/26 01:53:44;;;;;;;225.43;211.87;;;2.70;99.90;;;;;;5040086;28;20527;-84
2022/03/26 01:56:11;;;;;;;224.07;211.03;;;2.80;99.90;;;;;;5040632;28;20852;-83
2022/03/26 01:58:38;;;;;;;216.50;202.50;;;2.80;99.90;;;;;;5039918;28;20884;-84
2022/03/26 02:01:05;;;;;;;199.07;185.73;;;2.80;99.90;;;;;;5040112;28;20454;-83
2022/03/26 02:03:32;;;;;;;260.20;243.93;;;2.80;99.90;;;;;;5039720;28;21127;-84
2022/03/26 02:05:59;;;;;;;378.50;358.20;;;2.80;99.90;;;;;;5040055;28;20452;-82
2022/03/26 02:08:26;;;;;;;393.27;371.07;;;3.10;99.90;;;;;;5040071;28;20502;-84
2022/03/26 02:10:54;;;;;;;329.20;309.77;;;2.90;99.90;;;;;;5039776;28;20544;-84
2022/03/26 02:13:21;;;;;;;309.63;291.00;;;3.00;99.90;;;;;;5039902;28;20456;-84
2022/03/26 02:15:48;;;;;;;342.83;323.10;;;2.90;99.90;;;;;;5039579;28;20456;-83
2022/03/26 02:18:15;;;;;;;406.63;383.90;;;2.90;99.90;;;;;;5039521;28;20486;-84
2022/03/26 02:20:44;;;;;;;419.87;397.10;;;3.10;99.90;;;;;;5040213;28;20455;-83
2022/03/26 02:23:11;;;;;;;320.97;303.47;;;3.10;99.90;;;;;;5039417;28;20465;-84
2022/03/26 02:25:38;;;;;;;370.03;350.23;;;3.10;99.90;;;;;;5039783;28;20949;-84
2022/03/26 02:28:06;;;;;;;359.17;341.07;;;3.10;99.90;;;;;;5039279;28;20476;-84
2022/03/26 02:30:33;;;;;;;308.93;292.40;;;3.10;99.90;;;;;;5039459;28;20567;-84
2022/03/26 02:33:00;;;;;;;283.37;267.83;;;3.00;99.90;;;;;;5039256;28;20463;-84
2022/03/26 02:35:27;;;;;;;360.57;341.57;;;2.80;99.90;;;;;;5038871;28;20479;-83
2022/03/26 02:37:55;;;;;;;368.10;349.37;;;2.80;99.90;;;;;;5040078;28;20452;-84
2022/03/26 02:40:22;;;;;;;315.33;299.83;;;2.90;99.90;;;;;;5039464;28;20453;-83
2022/03/26 02:42:49;;;;;;;302.60;286.40;;;2.70;99.90;;;;;;5039414;28;20953;-84
2022/03/26 02:45:15;;;;;;;321.70;303.57;;;2.70;99.90;;;;;;5038997;28;20463;-83
2022/03/26 02:47:42;;;;;;;308.50;290.77;;;2.60;99.90;;;;;;5039170;28;20460;-84
2022/03/26 02:50:10;;;;;;;316.27;298.23;;;2.60;99.90;;;;;;5038110;28;20567;-83
2022/03/26 02:52:37;;;;;;;351.83;331.23;;;2.60;99.90;;;;;;5038280;28;21134;-83
2022/03/26 02:55:09;;;;;;;329.23;309.60;;;2.50;99.90;;;;;;5038675;28;20448;-84
2022/03/26 02:57:35;;;;;;;577.10;540.90;;;2.60;99.90;;;;;;5038203;28;20483;-83
2022/03/26 03:00:03;;;;;;;595.57;558.00;;;2.60;99.90;;;;;;5038763;28;20479;-83
2022/03/26 03:02:29;;;;;;;599.70;560.87;;;2.70;99.90;;;;;;5039331;28;20456;-83
2022/03/26 03:04:56;;;;;;;599.53;560.90;;;2.80;99.90;;;;;;5038871;28;20835;-83
2022/03/26 03:07:23;;;;;;;568.83;533.17;;;2.70;99.90;;;;;;5039205;28;20459;-83
2022/03/26 03:09:49;;;;;;;493.60;463.73;;;2.60;99.90;;;;;;5038181;28;20487;-83
2022/03/26 03:12:18;;;;;;;482.57;452.17;;;2.50;99.90;;;;;;5037971;28;20456;-83
2022/03/26 03:14:44;;;;;;;556.67;521.37;;;2.50;99.90;;;;;;5039105;28;20540;-84
2022/03/26 03:17:11;;;;;;;693.97;646.70;;;2.40;99.90;;;;;;5038509;28;20843;-84
2022/03/26 03:19:38;;;;;;;662.17;617.87;;;2.60;99.90;;;;;;5037635;28;20472;-83
2022/03/26 03:22:05;;;;;;;608.40;570.33;;;2.60;99.90;;;;;;5038273;28;20460;-83
2022/03/26 03:24:32;;;;;;;704.93;656.67;;;2.50;99.90;;;;;;5038278;28;20440;-83
2022/03/26 03:26:58;;;;;;;676.77;631.73;;;2.50;99.90;;;;;;5039032;28;20535;-83
2022/03/26 03:29:27;;;;;;;598.70;560.67;;;2.40;99.90;;;;;;5038900;28;20476;-83
2022/03/26 03:31:53;;;;;;;621.07;580.23;;;2.40;99.90;;;;;;5038610;28;20488;-83
2022/03/26 03:34:20;;;;;;;629.63;588.07;;;2.50;99.90;;;;;;5037765;28;20444;-83
2022/03/26 03:36:47;;;;;;;625.27;582.63;;;2.40;99.90;;;;;;5038656;28;20452;-84
2022/03/26 03:39:13;;;;;;;537.00;504.30;;;2.50;99.90;;;;;;5038628;28;20476;-84
2022/03/26 03:41:40;;;;;;;516.37;484.37;;;2.40;99.90;;;;;;5038650;28;20456;-84
2022/03/26 03:44:08;;;;;;;464.33;437.37;;;2.30;99.90;;;;;;5038449;28;20530;-83
2022/03/26 03:46:36;;;;;;;522.67;492.30;;;2.50;99.90;;;;;;5037980;28;20831;-83
2022/03/26 03:49:03;;;;;;;519.80;489.50;;;2.10;99.90;;;;;;5038019;28;20472;-83
2022/03/26 03:51:30;;;;;;;639.40;599.23;;;2.20;99.90;;;;;;5038633;28;21012;-83
2022/03/26 03:53:57;;;;;;;491.27;465.57;;;2.30;99.90;;;;;;5037503;28;20452;-83
2022/03/26 03:56:23;;;;;;;442.03;418.93;;;2.10;99.90;;;;;;5037839;28;20456;-83
2022/03/26 03:58:50;;;;;;;520.83;493.33;;;2.10;99.90;;;;;;5037201;28;20507;-84
2022/03/26 04:01:17;;;;;;;604.73;572.07;;;2.00;99.90;;;;;;5038002;28;20455;-83
2022/03/26 04:03:45;;;;;;;577.07;543.63;;;2.10;99.90;;;;;;5038372;28;20456;-84
2022/03/26 04:06:12;;;;;;;579.37;543.57;;;1.90;99.90;;;;;;5038354;28;20475;-83
2022/03/26 04:08:41;;;;;;;579.27;545.10;;;1.90;99.90;;;;;;5037847;28;20476;-84
2022/03/26 04:11:08;;;;;;;529.00;496.20;;;2.00;99.90;;;;;;5038001;28;20486;-84
2022/03/26 04:13:35;;;;;;;473.80;446.47;;;1.80;99.90;;;;;;5037840;28;20452;-83
2022/03/26 04:16:02;;;;;;;526.87;495.53;;;1.80;99.90;;;;;;5037577;28;20448;-84
2022/03/26 04:18:29;;;;;;;490.83;462.90;;;1.60;99.90;;;;;;5037227;28;20484;-84
2022/03/26 04:20:57;;;;;;;549.57;517.33;;;1.60;99.90;;;;;;5037694;28;20454;-83
2022/03/26 04:23:24;;;;;;;732.77;685.20;;;1.70;99.90;;;;;;5037077;28;20452;-83
2022/03/26 04:25:50;;;;;;;704.40;657.10;;;1.80;99.90;;;;;;5037925;28;20471;-83
2022/03/26 04:28:17;;;;;;;721.70;673.63;;;1.80;99.90;;;;;;5037411;28;20472;-83
2022/03/26 04:30:44;;;;;;;774.10;720.00;;;1.80;99.90;;;;;;5037477;28;20480;-83
2022/03/26 04:33:12;;;;;;;840.10;779.00;;;1.80;99.90;;;;;;5037388;28;20453;-83
2022/03/26 04:35:38;;;;;;;873.80;807.63;;;2.00;99.90;;;;;;5037656;28;20457;-84
2022/03/26 04:38:07;;;;;;;846.87;778.60;;;2.10;99.90;;;;;;5036672;28;20476;-83
2022/03/26 04:40:34;;;;;;;850.83;785.33;;;2.30;99.90;;;;;;5037722;28;20444;-83
2022/03/26 04:43:01;;;;;;;813.07;754.77;;;2.30;99.90;;;;;;5037569;28;20468;-84
2022/03/26 04:45:29;;;;;;;812.43;758.37;;;2.30;99.90;;;;;;5037110;28;20460;-83
2022/03/26 04:47:56;;;;;;;752.57;702.97;;;2.30;99.90;;;;;;5037312;28;20452;-82
2022/03/26 04:50:23;;;;;;;734.97;687.13;;;1.90;99.90;;;;;;5036977;28;21007;-83
2022/03/26 04:52:49;;;;;;;724.73;678.00;;;1.90;99.90;;;;;;5036893;28;20456;-83
2022/03/26 04:55:18;;;;;;;799.67;747.50;;;1.80;99.90;;;;;;5037426;28;20821;-84
2022/03/26 04:57:47;;;;;;;802.57;748.10;;;1.80;99.90;;;;;;5037217;28;20460;-83
2022/03/26 05:00:17;;;;;;;771.50;721.63;;;1.80;99.90;;;;;;5074584;23;20892;-83
2022/03/26 05:02:45;;;;;;;778.97;727.83;;;1.80;99.90;;;;;;5035221;28;20484;-82
2022/03/26 05:05:13;;;;;;;746.50;697.60;;;1.80;99.90;;;;;;5035117;28;20861;-82
2022/03/26 05:07:47;;;;;;;751.60;701.03;;;1.90;99.90;;;;;;5035126;28;20448;-82
2022/03/26 05:10:14;;;;;;;761.37;711.40;;;1.90;99.90;;;;;;5034466;28;20503;-82
2022/03/26 05:12:43;;;;;;;806.37;751.47;;;1.80;99.90;;;;;;5035465;28;20476;-82
2022/03/26 05:15:10;;;;;;;752.40;702.80;;;1.80;99.90;;;;;;5036326;28;20487;-82
2022/03/26 05:17:37;;;;;;;719.03;671.20;;;1.70;99.90;;;;;;5038699;28;20829;-82
2022/03/26 05:20:05;;;;;;;771.27;721.23;;;1.60;99.90;;;;;;5038534;28;20482;-83
2022/03/26 05:22:32;;;;;;;774.10;723.50;;;1.60;99.90;;;;;;5038448;28;20448;-82
2022/03/26 05:24:59;;;;;;;749.47;702.43;;;1.50;99.90;;;;;;5038044;28;20479;-82
2022/03/26 05:27:26;;;;;;;706.37;664.67;;;1.60;99.90;;;;;;5038814;28;20832;-83
2022/03/26 05:29:54;;;;;;;618.00;583.80;;;1.60;99.90;;;;;;5036698;28;20481;-81
2022/03/26 05:32:20;;;;;;;602.27;568.47;;;1.40;99.90;;;;;;5040391;28;20864;-82
2022/03/26 05:34:47;;;;;;;758.53;711.47;;;1.40;99.90;;;;;;5039060;28;20463;-82
2022/03/26 05:37:14;;;;;;;821.67;767.37;;;1.30;99.90;;;;;;5038237;28;20452;-83
2022/03/26 05:39:41;;;;;;;829.23;772.93;;;1.40;99.90;;;;;;5038051;28;20483;-82
2022/03/26 05:42:09;;;;;;;806.13;754.37;;;1.30;99.90;;;;;;5037552;28;20460;-82
2022/03/26 05:44:36;;;;;;;761.97;714.93;;;1.40;99.90;;;;;;5038387;28;20475;-82
2022/03/26 05:47:04;;;;;;;727.03;684.03;;;1.40;99.90;;;;;;5038263;28;20452;-82
2022/03/26 05:49:31;;;;;;;717.20;675.13;;;1.40;99.90;;;;;;5036619;28;20479;-83
2022/03/26 05:51:58;;;;;;;704.60;663.33;;;1.40;99.90;;;;;;5039249;28;20484;-82
2022/03/26 05:54:24;;;;;;;705.70;662.77;;;1.30;99.90;;;;;;5038061;28;20453;-80
2022/03/26 05:56:52;;;;;;;698.50;657.43;;;1.40;99.90;;;;;;5035837;28;20472;-80
2022/03/26 05:59:20;;;;;;;668.13;629.20;;;1.50;99.90;;;;;;5036086;28;20484;-81
2022/03/26 06:01:47;;;;;;;673.57;634.30;;;1.50;99.90;;;;;;5036648;28;20478;-81
2022/03/26 06:04:15;;;;;;;726.33;681.57;;;1.50;99.90;;;;;;5038256;28;20456;-82
2022/03/26 06:06:42;;;;;;;742.90;697.00;;;1.60;99.90;;;;;;5038443;28;20467;-82
2022/03/26 06:09:09;;;;;;;674.90;636.40;;;1.60;99.90;;;;;;5036326;28;20468;-82
2022/03/26 06:11:36;;;;;;;684.83;646.03;;;1.70;99.90;;;;;;5037644;28;20476;-81
2022/03/26 06:14:04;;;;;;;639.93;603.80;;;1.70;99.90;;;;;;5037651;28;20792;-82
2022/03/26 06:16:31;;;;;;;614.57;579.90;;;1.90;99.90;;;;;;5037394;28;20522;-82
2022/03/26 06:18:58;;;;;;;670.27;632.13;;;1.90;99.90;;;;;;5037297;28;20476;-82
2022/03/26 06:21:28;;;;;;;697.97;654.93;;;2.00;99.90;;;;;;5036547;28;20480;-81
2022/03/26 06:23:55;;;;;;;708.10;664.90;;;2.10;99.90;;;;;;5038284;28;20952;-82
2022/03/26 06:26:22;;;;;;;705.07;662.97;;;2.10;99.90;;;;;;5036201;28;20514;-81
2022/03/26 06:28:50;;;;;;;696.17;655.40;;;2.30;99.90;;;;;;5035696;28;20472;-82
2022/03/26 06:31:17;;;;;;;683.77;640.93;;;2.40;99.90;;;;;;5037355;28;20476;-82
2022/03/26 06:33:43;;;;;;;642.33;603.60;;;2.40;99.90;;;;;;5036680;28;20459;-82
2022/03/26 06:36:10;;;;;;;598.20;564.13;;;2.60;99.90;;;;;;5038212;28;20456;-82
2022/03/26 06:38:41;;;;;;;551.77;520.47;;;2.70;99.90;;;;;;5038141;28;20994;-82
2022/03/26 06:41:09;;;;;;;557.63;525.77;;;2.80;99.90;;;;;;5036269;28;20999;-82
2022/03/26 06:43:37;;;;;;;696.43;653.57;;;2.90;99.90;;;;;;5037737;28;20480;-81
2022/03/26 06:46:04;;;;;;;620.73;584.93;;;3.20;99.90;;;;;;5037607;28;20456;-82
2022/03/26 06:48:31;;;;;;;625.10;587.73;;;3.40;99.90;;;;;;5037199;28;20512;-82
2022/03/26 06:51:00;;;;;;;655.27;615.37;;;3.50;99.90;;;;;;5038402;28;20868;-82
2022/03/26 06:53:26;;;;;;;636.97;600.37;;;3.70;99.90;;;;;;5038689;28;20510;-82
2022/03/26 06:55:55;;;;;;;620.97;584.30;;;3.80;99.90;;;;;;5037698;28;20953;-82
2022/03/26 06:58:21;;;;;;;593.13;557.33;;;3.90;99.90;;;;;;5035653;28;20487;-82
2022/03/26 07:00:48;;;;;;;694.97;653.07;;;4.10;99.90;;;;;;5036940;28;20468;-82
2022/03/26 07:03:16;;;;;;;773.17;722.97;;;4.10;99.90;;;;;;5038554;28;20495;-81
2022/03/26 07:05:43;;;;;;;792.33;739.47;;;4.50;99.90;;;;;;5037099;28;20457;-81
2022/03/26 07:08:10;;;;;;;758.87;709.43;;;4.70;99.90;;;;;;5050839;28;20444;-79
2022/03/26 07:10:37;;;;;;;732.63;684.63;;;4.80;99.90;;;;;;5055389;28;20448;-81
2022/03/26 07:13:06;;;;;;;713.80;667.00;;;4.90;99.90;;;;;;5050044;28;20472;-81
2022/03/26 07:15:33;;;;;;;773.37;722.97;;;5.00;99.90;;;;;;5038930;28;20456;-82
2022/03/26 07:17:59;;;;;;;780.77;729.97;;;5.30;99.90;;;;;;5037528;28;20486;-80
2022/03/26 07:20:27;;;;;;;735.37;687.83;;;5.40;99.90;;;;;;5038383;28;20488;-81
2022/03/26 07:22:53;;;;;;;680.87;637.87;;;5.70;99.90;;;;;;5038414;28;20452;-82
2022/03/26 07:25:59;;;;;;;574.67;540.60;;;5.80;99.90;;;;;;5046614;28;20454;-81
2022/03/26 07:28:27;;;;;;;301.33;283.23;;;5.90;99.90;;;;;;5047122;28;20456;-81
2022/03/26 07:30:56;;;;;;;216.10;200.10;;;6.40;99.90;;;;;;5053183;28;20448;-80
2022/03/26 07:33:23;;;;;;;127.00;114.50;;;6.60;99.90;;;;;;5050360;28;20456;-81
2022/03/26 07:35:49;;;;;;;129.83;116.73;;;6.70;99.90;;;;;;5037626;28;20452;-81
2022/03/26 07:38:16;;;;;;;91.73;80.17;;;6.90;99.80;;;;;;5035919;28;20460;-80
2022/03/26 07:40:43;;;;;;;101.43;84.90;;;7.00;98.50;;;;;;5036644;28;20487;-82
2022/03/26 07:43:10;;;;;;;89.47;73.90;;;7.20;97.70;;;;;;5036607;28;20459;-82
2022/03/26 07:45:38;;;;;;;95.30;79.50;;;7.30;97.00;;;;;;5037204;28;20456;-83
2022/03/26 07:48:06;;;;;;;98.70;64.97;;;7.50;97.00;;;;;;5036631;28;20941;-79
2022/03/26 07:50:33;;;;;;;93.37;62.67;;;7.60;95.00;;;;;;5036106;28;20476;-82
2022/03/26 07:52:59;;;;;;;93.53;58.83;;;7.80;94.20;;;;;;5036948;28;20495;-82
2022/03/26 07:55:26;;;;;;;90.37;58.87;;;7.90;92.80;;;;;;5036754;28;20471;-82
2022/03/26 07:57:53;;;;;;;88.40;58.40;;;8.00;92.30;;;;;;5036791;28;20452;-82
2022/03/26 08:00:20;;;;;;;93.00;60.30;;;8.20;92.80;;;;;;5036288;28;20488;-82
2022/03/26 08:02:48;;;;;;;90.03;56.10;;;8.20;92.90;;;;;;5036314;28;20452;-82
2022/03/26 08:05:16;;;;;;;91.30;53.97;;;8.40;90.80;;;;;;5036516;28;20456;-81
2022/03/26 08:07:43;;;;;;;87.53;51.60;;;8.60;89.50;;;;;;5036156;28;20483;-81
2022/03/26 08:10:11;;;;;;;79.83;50.60;;;8.80;85.80;;;;;;5035732;28;20858;-82
2022/03/26 08:12:37;;;;;;;83.33;52.50;;;9.00;86.80;;;;;;5036272;28;20479;-82
2022/03/26 08:15:05;;;;;;;83.67;48.27;;;9.10;82.90;;;;;;5034484;28;20452;-81
2022/03/26 08:17:32;;;;;;;76.80;49.37;;;9.30;80.20;;;;;;5036324;28;20464;-82
2022/03/26 08:20:00;;;;;;;85.77;50.60;;;9.60;76.20;;;;;;5036441;28;20495;-82
2022/03/26 08:22:27;;;;;;;79.53;46.97;;;9.80;73.10;;;;;;5047088;28;20451;-81
2022/03/26 08:24:54;;;;;;;73.77;46.10;;;10.30;65.50;;;;;;5048643;28;20451;-83
2022/03/26 08:27:22;;;;;;;67.87;46.30;;;10.60;62.70;;;;;;5048456;28;20456;-82
2022/03/26 08:29:50;;;;;;;75.47;47.53;;;11.10;59.70;;;;;;5048468;28;20469;-80
2022/03/26 08:32:17;;;;;;;67.03;46.03;;;11.50;58.00;;;;;;5037537;28;20472;-83
2022/03/26 08:34:44;;;;;;;67.73;48.60;;;11.70;52.70;;;;;;5036695;28;20464;-83
2022/03/26 08:37:12;;;;;;;60.93;44.20;;;12.00;50.00;;;;;;5036671;28;20452;-81
2022/03/26 08:39:39;;;;;;;64.73;45.27;;;12.00;45.70;;;;;;5035957;28;20476;-83
2022/03/26 08:42:06;;;;;;;67.43;45.47;;;12.60;46.30;;;;;;5036269;28;20452;-82
2022/03/26 08:44:33;;;;;;;67.23;46.50;;;12.90;43.60;;;;;;5036022;28;20840;-83
2022/03/26 08:47:02;;;;;;;67.47;45.77;;;13.20;40.00;;;;;;5035823;28;20454;-83
2022/03/26 08:49:29;;;;;;;66.77;45.37;;;13.70;40.30;;;;;;5036892;28;20504;-83
2022/03/26 08:51:56;;;;;;;70.10;44.57;;;14.10;38.80;;;;;;5039622;28;20478;-83
2022/03/26 08:54:24;;;;;;;70.03;47.93;;;14.30;32.80;;;;;;5040171;28;20533;-83
2022/03/26 08:56:51;;;;;;;68.73;47.03;;;14.30;31.60;;;;;;5039438;28;20464;-83
2022/03/26 08:59:18;;;;;;;67.00;46.13;;;14.40;31.20;;;;;;5038886;28;20493;-82
2022/03/26 09:01:44;;;;;;;52.57;41.30;;;14.70;28.00;;;;;;5039571;28;20450;-83
2022/03/26 09:04:14;;;;;;;62.43;43.50;;;15.10;25.90;;;;;;5039981;28;20458;-83
2022/03/26 09:06:40;;;;;;;56.70;42.00;;;15.20;23.60;;;;;;5039948;28;20455;-82
2022/03/26 09:09:07;;;;;;;59.27;45.07;;;15.50;20.80;;;;;;5038983;28;20485;-83
2022/03/26 09:11:36;;;;;;;59.60;43.57;;;15.70;23.90;;;;;;5039468;28;20459;-83
2022/03/26 09:14:03;;;;;;;58.03;42.23;;;16.20;20.50;;;;;;5039871;28;20484;-82
2022/03/26 09:16:30;;;;;;;57.33;40.57;;;16.40;19.40;;;;;;5039107;28;20456;-83
2022/03/26 09:18:57;;;;;;;65.57;42.50;;;16.40;18.30;;;;;;5039299;28;20479;-83
2022/03/26 09:21:24;;;;;;;53.13;42.30;;;16.40;17.50;;;;;;5040707;28;20459;-83
2022/03/26 09:23:50;;;;;;;56.40;43.97;;;16.60;17.30;;;;;;5038834;28;20464;-81
2022/03/26 09:26:17;;;;;;;57.97;43.10;;;16.80;17.40;;;;;;5039342;28;20458;-82
2022/03/26 09:28:48;;;;;;;59.37;43.90;;;16.50;16.30;;;;;;5042272;28;20477;-83
2022/03/26 09:31:15;;;;;;;55.70;42.40;;;16.00;16.80;;;;;;5042161;28;20461;-82
2022/03/26 09:33:42;;;;;;;55.83;42.17;;;16.30;15.50;;;;;;5042141;28;20491;-82
2022/03/26 09:36:09;;;;;;;58.40;39.53;;;17.30;15.30;;;;;;5041667;28;20459;-82
2022/03/26 09:38:36;;;;;;;56.47;41.50;;;16.80;14.70;;;;;;5041071;28;20812;-83
2022/03/26 09:41:04;;;;;;;62.07;42.43;;;16.90;15.00;;;;;;5040921;28;20946;-83
2022/03/26 09:43:33;;;;;;;64.50;43.33;;;17.10;15.70;;;;;;5041819;28;20525;-79
2022/03/26 09:46:01;;;;;;;66.73;45.67;;;17.10;14.10;;;;;;5042102;28;20462;-82
2022/03/26 09:48:28;;;;;;;63.23;45.03;;;17.40;13.70;;;;;;5041373;28;20461;-83
2022/03/26 09:50:56;;;;;;;61.33;42.50;;;17.60;12.70;;;;;;5042433;28;20459;-83
2022/03/26 09:53:23;;;;;;;61.70;43.37;;;17.30;13.70;;;;;;5041886;28;20483;-84
2022/03/26 09:55:51;;;;;;;56.47;41.40;;;17.30;12.80;;;;;;5042285;28;20453;-81
2022/03/26 09:58:18;;;;;;;55.67;41.40;;;17.60;13.40;;;;;;5042124;28;20475;-81
2022/03/26 10:00:45;;;;;;;58.40;42.20;;;18.00;11.00;;;;;;5041479;28;20495;-83
2022/03/26 10:03:13;;;;;;;56.33;41.10;;;18.40;9.30;;;;;;5042384;28;20451;-83
2022/03/26 10:05:40;;;;;;;58.00;41.20;;;19.50;5.30;;;;;;5041291;28;20457;-83
2022/03/26 10:08:20;;;;;;;62.47;41.20;;;19.60;3.30;;;;;;5040857;28;20493;-80
2022/03/26 10:10:47;;;;;;;71.80;44.37;;;20.40;1.00;;;;;;5041654;28;20474;-83
2022/03/26 10:13:34;;;;;;;60.20;40.20;;;20.50;2.10;;;;;;5041462;28;20477;-84
2022/03/26 10:16:01;;;;;;;49.13;39.20;;;20.10;1.80;;;;;;5040857;28;20463;-83
2022/03/26 10:18:36;;;;;;;52.67;39.03;;;20.20;3.50;;;;;;5041063;28;20457;-81
2022/03/26 10:21:03;;;;;;;50.37;37.83;;;20.00;1.00;;;;;;5040679;28;20489;-82
2022/03/26 10:23:31;;;;;;;45.73;33.80;;;20.50;1.00;;;;;;5041268;28;20454;-83
2022/03/26 10:26:11;;;;;;;51.43;38.30;;;20.30;1.00;;;;;;5041905;28;20527;-84
2022/03/26 10:28:40;;;;;;;52.37;37.13;;;20.40;1.00;;;;;;5041078;28;20448;-83
2022/03/26 10:34:11;;;;;;;48.27;37.73;;;21.10;1.00;;;;;;5042266;28;20525;-84
2022/03/26 10:36:41;;;;;;;45.10;34.67;;;21.10;1.00;;;;;;5042451;28;20462;-85
2022/03/26 10:39:14;;;;;;;46.73;33.10;;;21.10;1.00;;;;;;5041285;28;20480;-84
2022/03/26 10:41:41;;;;;;;42.83;34.17;;;20.80;1.00;;;;;;5040053;28;20464;-83
2022/03/26 10:44:10;;;;;;;48.80;34.33;;;21.30;1.00;;;;;;5040096;28;20455;-83
2022/03/26 10:46:45;;;;;;;44.37;32.63;;;21.10;1.00;;;;;;5040210;28;20452;-85
2022/03/26 10:49:14;;;;;;;50.63;35.67;;;20.90;1.00;;;;;;5038620;28;20470;-84
2022/03/26 10:51:42;;;;;;;45.60;34.73;;;21.40;1.00;;;;;;5038688;28;20468;-84
2022/03/26 10:54:10;;;;;;;49.53;32.53;;;20.50;1.00;;;;;;5039104;28;20476;-84
2022/03/26 10:56:38;;;;;;;41.83;33.23;;;19.90;1.00;;;;;;5039425;28;20458;-81
2022/03/26 10:59:06;;;;;;;48.53;34.10;;;19.90;1.00;;;;;;5060873;23;20472;-81
2022/03/26 11:01:34;;;;;;;45.03;32.97;;;20.10;1.00;;;;;;5037772;28;20984;-81
2022/03/26 11:04:01;;;;;;;41.50;33.37;;;20.40;1.00;;;;;;5037942;28;20892;-81
2022/03/26 11:06:31;;;;;;;44.97;32.73;;;20.60;1.00;;;;;;5037771;28;20523;-81
2022/03/26 11:09:01;;;;;;;47.20;34.50;;;20.70;1.00;;;;;;5037409;28;20551;-81
2022/03/26 11:11:28;;;;;;;39.93;30.80;;;21.50;1.00;;;;;;5037938;28;20452;-81
2022/03/26 11:14:00;;;;;;;46.40;35.10;;;21.40;1.00;;;;;;5037805;28;20876;-81
2022/03/26 11:16:35;;;;;;;42.47;30.77;;;21.00;1.00;;;;;;5036961;28;20460;-81
2022/03/26 11:19:14;;;;;;;45.10;33.23;;;21.10;1.00;;;;;;5037814;28;20452;-81
2022/03/26 11:21:57;;;;;;;45.17;35.70;;;20.80;1.00;;;;;;5037205;28;20463;-81
2022/03/26 11:24:50;;;;;;;50.00;34.70;;;21.30;1.00;;;;;;5037740;28;20510;-82
2022/03/26 11:27:33;;;;;;;44.00;31.13;;;21.60;1.00;;;;;;5038184;28;20452;-82
2022/03/26 11:30:04;;;;;;;39.33;25.87;;;21.80;1.00;;;;;;5038421;28;20471;-82
2022/03/26 11:32:35;;;;;;;44.00;29.13;;;20.70;1.00;;;;;;5037115;28;20510;-81
2022/03/26 11:35:03;;;;;;;40.50;27.20;;;21.00;1.00;;;;;;5037695;28;20452;-82
2022/03/26 11:37:32;;;;;;;38.10;24.50;;;21.10;1.00;;;;;;5037824;28;20459;-82
2022/03/26 11:39:58;;;;;;;34.80;22.43;;;20.70;1.00;;;;;;5038198;28;20893;-82
2022/03/26 11:42:36;;;;;;;36.93;21.90;;;20.90;1.00;;;;;;5037892;28;20459;-83
2022/03/26 11:50:46;;;;;;;40.40;26.27;;;23.10;1.00;;;;;;5037485;28;20881;-83
2022/03/26 11:53:34;;;;;;;37.10;26.80;;;22.50;1.00;;;;;;5038095;28;20471;-83
2022/03/26 11:56:03;;;;;;;32.13;23.53;;;23.30;1.00;;;;;;5036740;28;20452;-81
2022/03/26 11:58:30;;;;;;;31.30;23.43;;;22.60;1.00;;;;;;5036770;28;20482;-83
2022/03/26 12:01:00;;;;;;;27.67;20.80;;;22.60;1.00;;;;;;5039183;28;20484;-85
2022/03/26 12:03:30;;;;;;;30.83;21.20;;;21.80;1.00;;;;;;5038863;28;20452;-85
2022/03/26 12:08:50;;;;;;;34.07;22.43;;;21.00;1.00;;;;;;5038174;28;20440;-84
2022/03/26 12:11:19;;;;;;;30.80;23.33;;;22.10;1.00;;;;;;5037395;28;20483;-84
2022/03/26 12:14:00;;;;;;;26.93;18.10;;;23.10;1.00;;;;;;5036879;28;20480;-84
2022/03/26 12:16:55;;;;;;;29.97;20.00;;;22.40;1.00;;;;;;5037803;28;20517;-83
2022/03/26 12:19:41;;;;;;;23.67;18.43;;;22.60;1.00;;;;;;5035858;28;20468;-85
2022/03/26 12:22:23;;;;;;;27.57;19.27;;;22.40;1.00;;;;;;5036430;28;20865;-84
2022/03/26 12:24:51;;;;;;;26.30;20.70;;;22.40;1.00;;;;;;5037152;28;20506;-83
2022/03/26 12:27:18;;;;;;;27.93;17.80;;;21.70;1.00;;;;;;5040834;28;20469;-85
2022/03/26 12:29:45;;;;;;;22.97;14.97;;;22.30;1.00;;;;;;5038045;28;20483;-85
2022/03/26 12:32:12;;;;;;;25.10;13.87;;;22.40;1.00;;;;;;5039663;28;20448;-84
2022/03/26 12:34:55;;;;;;;15.77;10.80;;;22.20;1.00;;;;;;5040378;28;20480;-86
2022/03/26 12:37:23;;;;;;;24.47;17.40;;;22.30;1.00;;;;;;5041166;28;20474;-84
2022/03/26 12:39:52;;;;;;;29.77;20.90;;;22.80;1.00;;;;;;5040531;28;20471;-85
2022/03/26 12:42:19;;;;;;;25.63;18.03;;;22.70;1.00;;;;;;5039503;28;20459;-85